createdAt,value
2019-05-23T00:01:14.515Z,94016.40
2019-05-23T00:04:01.597Z,94015.38
2019-05-23T00:06:31.877Z,94011.36
2019-05-23T00:09:00.912Z,94003.30
2019-05-23T00:11:40.219Z,94007.23
2019-05-23T00:14:24.517Z,94002.11
2019-05-23T00:16:54.841Z,93996.81
2019-05-23T00:19:23.951Z,93988.11
2019-05-23T00:21:53.986Z,93989.22
2019-05-23T00:24:24.126Z,93989.09
2019-05-23T00:26:53.029Z,93996.62
2019-05-23T00:29:22.727Z,93990.47
2019-05-23T00:31:55.880Z,93981.75
2019-05-23T00:34:25.765Z,93990.07
2019-05-23T00:36:55.018Z,93996.80
2019-05-23T00:39:24.243Z,93996.37
2019-05-23T00:41:53.846Z,93994.87
2019-05-23T00:44:23.137Z,93999.89
2019-05-23T00:46:52.762Z,94001.16
2019-05-23T00:49:22.170Z,94009.01
2019-05-23T00:51:50.870Z,94005.50
2019-05-23T00:54:20.813Z,93999.66
2019-05-23T00:56:50.310Z,93998.17
2019-05-23T00:59:26.977Z,94000.47
2019-05-23T01:01:50.252Z,93998.93
2019-05-23T01:04:19.186Z,93997.95
2019-05-23T01:06:49.368Z,93999.12
2019-05-23T01:09:18.108Z,93992.34
2019-05-23T01:11:47.602Z,93998.53
2019-05-23T01:14:17.017Z,93989.47
2019-05-23T01:16:45.760Z,93988.47
2019-05-23T01:19:15.471Z,93994.11
2019-05-23T01:21:52.605Z,93999.89
2019-05-23T01:24:26.156Z,93991.93
2019-05-23T01:26:54.962Z,93991.36
2019-05-23T01:29:24.708Z,93992.27
2019-05-23T01:32:01.103Z,93994.41
2019-05-23T01:34:30.849Z,93995.80
2019-05-23T01:36:59.759Z,94001.44
2019-05-23T01:39:28.460Z,94007.66
2019-05-23T01:41:57.199Z,94007.33
2019-05-23T01:44:26.407Z,94006.77
2019-05-23T01:46:55.827Z,94004.33
2019-05-23T01:49:25.258Z,94008.56
2019-05-23T01:51:54.759Z,94007.41
2019-05-23T01:54:23.760Z,94004.25
2019-05-23T01:56:52.499Z,93991.35
2019-05-23T01:59:21.194Z,93992.89
2019-05-23T02:01:49.897Z,93986.98
2019-05-23T02:04:18.935Z,93985.05
2019-05-23T02:06:47.943Z,93982.35
2019-05-23T02:09:16.948Z,93980.42
2019-05-23T02:11:45.691Z,93973.88
2019-05-23T02:14:14.597Z,93981.75
2019-05-23T02:16:45.554Z,93979.80
2019-05-23T02:19:14.493Z,93971.55
2019-05-23T02:21:44.913Z,93974.39
2019-05-23T02:24:14.603Z,93970.92
2019-05-23T02:26:44.652Z,93968.44
2019-05-23T02:29:14.544Z,93962.67
2019-05-23T02:31:43.243Z,93962.13
2019-05-23T02:34:12.081Z,93955.77
2019-05-23T02:36:41.093Z,93960.20
2019-05-23T02:39:17.145Z,93952.86
2019-05-23T02:42:03.762Z,93959.63
2019-05-23T02:44:34.060Z,93957.77
2019-05-23T02:47:21.197Z,93953.08
2019-05-23T02:49:52.040Z,93956.90
2019-05-23T02:52:23.854Z,93959.87
2019-05-23T02:54:54.278Z,93959.64
2019-05-23T02:57:25.529Z,93962.94
2019-05-23T02:59:57.146Z,93961.06
2019-05-23T03:02:30.490Z,93968.62
2019-05-23T03:05:00.129Z,93963.80
2019-05-23T03:07:33.112Z,93958.70
2019-05-23T03:10:02.647Z,93958.38
2019-05-23T03:12:31.843Z,93962.85
2019-05-23T03:15:02.902Z,93959.78
2019-05-23T03:17:34.699Z,93962.68
2019-05-23T03:20:06.194Z,93970.54
2019-05-23T03:22:54.265Z,93974.44
2019-05-23T03:25:39.240Z,93970.38
2019-05-23T03:28:09.778Z,93973.34
2019-05-23T03:30:40.403Z,93974.21
2019-05-23T03:33:10.872Z,93969.48
2019-05-23T03:35:41.408Z,93966.30
2019-05-23T03:38:11.096Z,93968.94
2019-05-23T03:40:40.308Z,93964.80
2019-05-23T03:43:10.136Z,93972.69
2019-05-23T03:45:44.254Z,93968.09
2019-05-23T03:48:13.790Z,93973.11
2019-05-23T03:50:44.418Z,93981.37
2019-05-23T03:53:13.136Z,93978.32
2019-05-23T03:55:42.789Z,93982.14
2019-05-23T03:58:12.993Z,93977.88
2019-05-23T04:00:43.385Z,93980.36
2019-05-23T04:03:12.709Z,93982.55
2019-05-23T04:05:41.362Z,93985.42
2019-05-23T04:08:11.885Z,93973.83
2019-05-23T04:10:41.285Z,93989.95
2019-05-23T04:13:09.993Z,93985.64
2019-05-23T04:15:39.029Z,93989.89
2019-05-23T04:18:08.062Z,93987.21
2019-05-23T04:20:36.996Z,93993.15
2019-05-23T04:23:05.942Z,93996.97
2019-05-23T04:25:34.836Z,93998.42
2019-05-23T04:28:04.468Z,94001.72
2019-05-23T04:30:34.274Z,93999.31
2019-05-23T04:33:03.714Z,94001.73
2019-05-23T04:35:32.454Z,93999.81
2019-05-23T04:38:01.648Z,94011.41
2019-05-23T04:40:30.541Z,94006.95
2019-05-23T04:42:59.294Z,94009.80
2019-05-23T04:45:28.895Z,94011.30
2019-05-23T04:47:57.615Z,94011.87
2019-05-23T04:50:26.656Z,94001.77
2019-05-23T04:52:55.642Z,94004.16
2019-05-23T04:55:25.536Z,94017.44
2019-05-23T04:57:54.481Z,94008.80
2019-05-23T05:00:23.803Z,94006.20
2019-05-23T05:02:53.998Z,94015.06
2019-05-23T05:05:23.152Z,94014.30
2019-05-23T05:07:51.855Z,94026.86
2019-05-23T05:10:22.953Z,94020.13
2019-05-23T05:12:52.230Z,94023.34
2019-05-23T05:15:21.045Z,94033.02
2019-05-23T05:17:49.847Z,94030.45
2019-05-23T05:20:19.314Z,94029.48
2019-05-23T05:22:48.173Z,94033.54
2019-05-23T05:25:17.575Z,94035.31
2019-05-23T05:27:47.395Z,94045.33
2019-05-23T05:30:16.515Z,94042.23
2019-05-23T05:32:45.888Z,94048.80
2019-05-23T05:35:14.734Z,94051.68
2019-05-23T05:37:43.462Z,94053.08
2019-05-23T05:40:13.921Z,94055.26
2019-05-23T05:42:44.149Z,94062.75
2019-05-23T05:45:13.654Z,94060.40
2019-05-23T05:47:42.849Z,94062.79
2019-05-23T05:50:13.796Z,94060.14
2019-05-23T05:52:42.906Z,94067.75
2019-05-23T05:55:13.439Z,94068.05
2019-05-23T05:57:42.688Z,94078.89
2019-05-23T06:00:29.988Z,94069.65
2019-05-23T06:03:05.029Z,94064.05
2019-05-23T06:05:32.281Z,94066.55
2019-05-23T06:08:01.476Z,94063.64
2019-05-23T06:10:30.619Z,94064.17
2019-05-23T06:12:59.316Z,94066.84
2019-05-23T06:15:28.310Z,94070.08
2019-05-23T06:17:57.051Z,94073.29
2019-05-23T06:20:26.207Z,94079.84
2019-05-23T06:22:55.617Z,94089.72
2019-05-23T06:25:25.368Z,94081.41
2019-05-23T06:27:54.290Z,94085.85
2019-05-23T06:30:24.892Z,94083.16
2019-05-23T06:32:54.023Z,94087.78
2019-05-23T06:35:22.838Z,94084.47
2019-05-23T06:37:51.847Z,94085.25
2019-05-23T06:40:20.657Z,94088.91
2019-05-23T06:42:50.873Z,94088.55
2019-05-23T06:45:20.844Z,94079.63
2019-05-23T06:47:49.821Z,94087.39
2019-05-23T06:50:20.539Z,94086.02
2019-05-23T06:52:49.218Z,94084.27
2019-05-23T06:55:17.968Z,94079.28
2019-05-23T06:57:46.656Z,94081.97
2019-05-23T07:00:17.363Z,94070.76
2019-05-23T07:02:47.388Z,94090.44
2019-05-23T07:05:18.867Z,94078.63
2019-05-23T07:07:47.619Z,94081.57
2019-05-23T07:10:16.667Z,94079.98
2019-05-23T07:12:45.362Z,94074.28
2019-05-23T07:15:14.280Z,94081.83
2019-05-23T07:17:42.980Z,94076.95
2019-05-23T07:20:12.871Z,94075.86
2019-05-23T07:22:41.574Z,94074.92
2019-05-23T07:25:10.504Z,94076.88
2019-05-23T07:27:39.651Z,94071.22
2019-05-23T07:30:13.972Z,94083.24
2019-05-23T07:32:42.809Z,94081.83
2019-05-23T07:35:11.627Z,94085.64
2019-05-23T07:37:40.313Z,94080.86
2019-05-23T07:40:09.393Z,94089.97
2019-05-23T07:42:38.693Z,94080.36
2019-05-23T07:45:09.369Z,94084.64
2019-05-23T07:47:40.183Z,94071.66
2019-05-23T07:50:08.610Z,94090.70
2019-05-23T07:52:37.410Z,94086.30
2019-05-23T07:55:08.438Z,94090.59
2019-05-23T07:57:37.212Z,94077.00
2019-05-23T08:00:08.487Z,94083.47
2019-05-23T08:02:40.243Z,94087.67
2019-05-23T08:05:10.726Z,94082.70
2019-05-23T08:07:39.835Z,94092.58
2019-05-23T08:10:09.003Z,94090.86
2019-05-23T08:12:37.808Z,94084.64
2019-05-23T08:15:07.012Z,94081.95
2019-05-23T08:17:36.066Z,94084.66
2019-05-23T08:20:05.647Z,94081.52
2019-05-23T08:22:34.455Z,94082.66
2019-05-23T08:25:03.433Z,94085.11
2019-05-23T08:27:33.888Z,94083.78
2019-05-23T08:30:03.695Z,94081.73
2019-05-23T08:32:32.860Z,94081.95
2019-05-23T08:35:01.882Z,94080.61
2019-05-23T08:37:31.545Z,94082.73
2019-05-23T08:40:00.536Z,94081.50
2019-05-23T08:42:30.127Z,94077.95
2019-05-23T08:44:58.824Z,94083.62
2019-05-23T08:47:27.768Z,94082.02
2019-05-23T08:49:56.479Z,94082.16
2019-05-23T08:52:25.171Z,94074.44
2019-05-23T08:54:56.864Z,94065.19
2019-05-23T08:57:25.586Z,94071.66
2019-05-23T08:59:54.286Z,94069.37
2019-05-23T09:02:23.760Z,94064.09
2019-05-23T09:05:04.679Z,94063.13
2019-05-23T09:07:23.131Z,94067.77
2019-05-23T09:09:51.988Z,94068.48
2019-05-23T09:12:20.682Z,94062.49
2019-05-23T09:14:49.556Z,94063.22
2019-05-23T09:17:19.189Z,94046.83
2019-05-23T09:19:47.815Z,94050.39
2019-05-23T09:22:16.533Z,94043.14
2019-05-23T09:24:45.255Z,94051.80
2019-05-23T09:27:13.956Z,94042.81
2019-05-23T09:29:42.651Z,94046.18
2019-05-23T09:32:11.687Z,94040.64
2019-05-23T09:34:40.390Z,94039.52
2019-05-23T09:37:09.649Z,94046.12
2019-05-23T09:39:39.950Z,94050.57
2019-05-23T09:42:12.063Z,94030.88
2019-05-23T09:44:39.097Z,94032.89
2019-05-23T09:47:07.819Z,94035.72
2019-05-23T09:49:36.518Z,94026.89
2019-05-23T09:52:06.181Z,94033.20
2019-05-23T09:54:35.209Z,94021.41
2019-05-23T09:57:05.614Z,94023.69
2019-05-23T09:59:34.403Z,94027.22
2019-05-23T10:02:03.388Z,94011.45
2019-05-23T10:04:32.397Z,94019.27
2019-05-23T10:07:01.130Z,94011.22
2019-05-23T10:09:29.962Z,94010.94
2019-05-23T10:11:58.652Z,94006.19
2019-05-23T10:14:34.626Z,94009.91
2019-05-23T10:17:03.447Z,94012.24
2019-05-23T10:19:32.359Z,94014.35
2019-05-23T10:22:01.060Z,94007.44
2019-05-23T10:24:29.792Z,94006.38
2019-05-23T10:26:58.505Z,94010.64
2019-05-23T10:29:27.208Z,94002.64
2019-05-23T10:31:55.937Z,93999.27
2019-05-23T10:34:24.645Z,93998.30
2019-05-23T10:36:53.296Z,93993.05
2019-05-23T10:39:22.319Z,93987.84
2019-05-23T10:41:51.138Z,93982.36
2019-05-23T10:44:19.836Z,93978.48
2019-05-23T10:46:48.577Z,93966.95
2019-05-23T10:49:17.200Z,93969.88
2019-05-23T10:51:45.907Z,93975.62
2019-05-23T10:54:18.116Z,93964.22
2019-05-23T10:56:46.949Z,93974.33
2019-05-23T10:59:15.743Z,93969.97
2019-05-23T11:01:44.764Z,93970.30
2019-05-23T11:04:13.470Z,93959.79
2019-05-23T11:06:43.058Z,93946.34
2019-05-23T11:09:12.513Z,93946.48
2019-05-23T11:11:41.354Z,93942.88
2019-05-23T11:14:11.106Z,93935.14
2019-05-23T11:16:40.534Z,93925.38
2019-05-23T11:19:10.802Z,93918.37
2019-05-23T11:21:39.496Z,93922.05
2019-05-23T11:24:08.427Z,93923.69
2019-05-23T11:26:37.055Z,93922.20
2019-05-23T11:29:07.267Z,93914.13
2019-05-23T11:31:36.183Z,93916.36
2019-05-23T11:34:05.354Z,93913.30
2019-05-23T11:36:36.540Z,93911.06
2019-05-23T11:39:09.104Z,93914.20
2019-05-23T11:41:37.729Z,93915.00
2019-05-23T11:44:06.732Z,93907.75
2019-05-23T11:46:37.144Z,93913.97
2019-05-23T11:49:06.340Z,93903.58
2019-05-23T11:51:35.747Z,93889.01
2019-05-23T11:54:08.476Z,93885.05
2019-05-23T11:56:37.103Z,93894.20
2019-05-23T11:59:05.971Z,93885.97
2019-05-23T12:01:39.106Z,93897.61
2019-05-23T12:04:09.373Z,93879.75
2019-05-23T12:06:54.359Z,93877.62
2019-05-23T12:09:14.275Z,93873.16
2019-05-23T12:11:43.573Z,93867.09
2019-05-23T12:14:12.556Z,93871.69
2019-05-23T12:16:41.853Z,93866.28
2019-05-23T12:19:11.674Z,93865.58
2019-05-23T12:21:40.512Z,93864.77
2019-05-23T12:24:09.720Z,93863.98
2019-05-23T12:26:38.524Z,93862.20
2019-05-23T12:29:07.245Z,93853.31
2019-05-23T12:31:35.982Z,93861.66
2019-05-23T12:34:04.883Z,93856.92
2019-05-23T12:36:33.811Z,93860.17
2019-05-23T12:39:02.624Z,93841.35
2019-05-23T12:41:31.406Z,93845.38
2019-05-23T12:44:00.069Z,93846.39
2019-05-23T12:46:28.772Z,93856.88
2019-05-23T12:48:59.845Z,93844.58
2019-05-23T12:51:44.426Z,93845.42
2019-05-23T12:54:13.238Z,93845.88
2019-05-23T12:56:41.951Z,93837.78
2019-05-23T12:59:10.990Z,93845.78
2019-05-23T13:01:41.361Z,93834.95
2019-05-23T13:04:11.031Z,93833.81
2019-05-23T13:06:39.871Z,93842.41
2019-05-23T13:09:09.695Z,93843.14
2019-05-23T13:11:38.964Z,93850.52
2019-05-23T13:14:08.596Z,93852.85
2019-05-23T13:16:37.591Z,93845.34
2019-05-23T13:19:06.499Z,93845.78
2019-05-23T13:21:35.419Z,93853.76
2019-05-23T13:24:04.455Z,93851.17
2019-05-23T13:26:33.230Z,93850.39
2019-05-23T13:29:01.907Z,93859.84
2019-05-23T13:31:30.706Z,93855.42
2019-05-23T13:33:59.437Z,93853.61
2019-05-23T13:36:28.159Z,93849.70
2019-05-23T13:38:57.895Z,93853.65
2019-05-23T13:41:26.533Z,93856.84
2019-05-23T13:43:55.266Z,93854.67
2019-05-23T13:46:23.896Z,93854.19
2019-05-23T13:48:52.602Z,93856.97
2019-05-23T13:51:21.363Z,93855.27
2019-05-23T13:53:50.177Z,93853.56
2019-05-23T13:56:19.545Z,93846.77
2019-05-23T13:58:48.307Z,93844.78
2019-05-23T14:01:18.212Z,93843.49
2019-05-23T14:03:47.029Z,93835.35
2019-05-23T14:06:15.862Z,93836.47
2019-05-23T14:08:44.766Z,93840.08
2019-05-23T14:11:13.554Z,93827.98
2019-05-23T14:13:43.313Z,93828.05
2019-05-23T14:16:12.232Z,93822.55
2019-05-23T14:18:40.906Z,93815.89
2019-05-23T14:21:09.742Z,93826.14
2019-05-23T14:23:38.538Z,93817.48
2019-05-23T14:26:08.804Z,93816.48
2019-05-23T14:28:37.637Z,93811.94
2019-05-23T14:31:07.903Z,93805.81
2019-05-23T14:33:47.439Z,93808.07
2019-05-23T14:36:36.005Z,93803.77
2019-05-23T14:39:09.241Z,93803.78
2019-05-23T14:41:45.395Z,93798.83
2019-05-23T14:44:10.139Z,93800.75
2019-05-23T14:46:46.373Z,93805.59
2019-05-23T14:49:25.493Z,93801.41
2019-05-23T14:51:58.408Z,93803.44
2019-05-23T14:54:30.805Z,93800.70
2019-05-23T14:56:59.697Z,93797.23
2019-05-23T14:59:28.533Z,93791.92
2019-05-23T15:01:58.237Z,93793.67
2019-05-23T15:04:26.959Z,93790.73
2019-05-23T15:06:55.711Z,93783.38
2019-05-23T15:09:24.612Z,93791.20
2019-05-23T15:11:53.234Z,93786.50
2019-05-23T15:14:21.972Z,93781.97
2019-05-23T15:16:50.688Z,93785.43
2019-05-23T15:19:38.786Z,93790.13
2019-05-23T15:21:49.776Z,93791.87
2019-05-23T15:24:18.397Z,93792.72
2019-05-23T15:26:47.391Z,93786.40
2019-05-23T15:29:16.123Z,93787.20
2019-05-23T15:32:01.154Z,93795.00
2019-05-23T15:34:15.286Z,93797.12
2019-05-23T15:36:44.000Z,93800.88
2019-05-23T15:39:12.700Z,93799.25
2019-05-23T15:41:41.326Z,93802.03
2019-05-23T15:44:24.324Z,93791.63
2019-05-23T15:46:41.393Z,93795.92
2019-05-23T15:49:11.488Z,93793.78
2019-05-23T15:51:56.695Z,93795.97
2019-05-23T15:54:26.968Z,93796.75
2019-05-23T15:56:57.218Z,93798.25
2019-05-23T15:59:27.527Z,93797.05
2019-05-23T16:02:06.709Z,93799.28
2019-05-23T16:04:35.937Z,93790.20
2019-05-23T16:07:05.521Z,93790.64
2019-05-23T16:09:34.680Z,93795.77
2019-05-23T16:12:03.837Z,93796.27
2019-05-23T16:14:33.473Z,93799.33
2019-05-23T16:17:02.178Z,93800.40
2019-05-23T16:19:30.924Z,93798.07
2019-05-23T16:21:59.644Z,93799.53
2019-05-23T16:24:28.422Z,93800.17
2019-05-23T16:26:57.463Z,93804.95
2019-05-23T16:29:26.472Z,93805.48
2019-05-23T16:31:55.269Z,93796.66
2019-05-23T16:34:24.000Z,93797.83
2019-05-23T16:36:52.623Z,93798.72
2019-05-23T16:39:21.926Z,93801.41
2019-05-23T16:41:50.680Z,93804.37
2019-05-23T16:44:19.392Z,93800.22
2019-05-23T16:46:48.186Z,93799.04
2019-05-23T16:49:16.927Z,93798.08
2019-05-23T16:51:45.619Z,93799.39
2019-05-23T16:54:16.129Z,93805.60
2019-05-23T16:56:46.541Z,93802.56
2019-05-23T16:59:28.657Z,93808.29
2019-05-23T17:02:10.805Z,93802.79
2019-05-23T17:05:06.223Z,93801.78
2019-05-23T17:07:37.942Z,93809.72
2019-05-23T17:10:11.783Z,93809.06
2019-05-23T17:12:45.211Z,93813.93
2019-05-23T17:15:18.970Z,93817.51
2019-05-23T17:18:02.964Z,93823.97
2019-05-23T17:20:27.348Z,93824.64
2019-05-23T17:22:57.727Z,93827.11
2019-05-23T17:25:28.041Z,93831.34
2019-05-23T17:28:07.374Z,93831.80
2019-05-23T17:30:39.137Z,93835.58
2019-05-23T17:33:08.345Z,93832.98
2019-05-23T17:35:37.229Z,93844.52
2019-05-23T17:38:05.965Z,93833.50
2019-05-23T17:40:35.024Z,93848.72
2019-05-23T17:43:03.816Z,93843.91
2019-05-23T17:45:33.161Z,93850.52
2019-05-23T17:48:03.711Z,93851.15
2019-05-23T17:50:34.973Z,93855.41
2019-05-23T17:53:03.479Z,93860.72
2019-05-23T17:55:33.097Z,93860.17
2019-05-23T17:58:01.909Z,93865.51
2019-05-23T18:00:32.334Z,93870.47
2019-05-23T18:03:01.135Z,93868.34
2019-05-23T18:05:30.036Z,93869.98
2019-05-23T18:08:00.473Z,93863.09
2019-05-23T18:10:43.768Z,93863.20
2019-05-23T18:13:00.189Z,93867.56
2019-05-23T18:15:29.749Z,93866.04
2019-05-23T18:17:59.017Z,93877.48
2019-05-23T18:20:28.265Z,93881.20
2019-05-23T18:22:57.093Z,93882.47
2019-05-23T18:25:27.700Z,93883.14
2019-05-23T18:27:56.497Z,93891.52
2019-05-23T18:30:32.718Z,93892.72
2019-05-23T18:33:02.556Z,93898.72
2019-05-23T18:35:33.097Z,93900.80
2019-05-23T18:38:02.528Z,93902.95
2019-05-23T18:40:31.333Z,93908.83
2019-05-23T18:43:00.053Z,93920.86
2019-05-23T18:45:30.499Z,93916.88
2019-05-23T18:48:00.610Z,93917.30
2019-05-23T18:50:31.107Z,93920.41
2019-05-23T18:52:59.951Z,93927.07
2019-05-23T18:55:28.911Z,93925.58
2019-05-23T18:57:57.599Z,93926.59
2019-05-23T19:00:55.710Z,93924.69
2019-05-23T19:03:24.543Z,93920.49
2019-05-23T19:05:53.308Z,93915.80
2019-05-23T19:08:22.757Z,93914.35
2019-05-23T19:10:51.467Z,93918.86
2019-05-23T19:13:20.177Z,93917.73
2019-05-23T19:15:48.920Z,93919.08
2019-05-23T19:18:17.731Z,93921.50
2019-05-23T19:20:46.556Z,93923.26
2019-05-23T19:23:15.801Z,93928.63
2019-05-23T19:25:45.710Z,93919.73
2019-05-23T19:28:14.700Z,93932.84
2019-05-23T19:30:44.347Z,93943.94
2019-05-23T19:33:13.085Z,93945.69
2019-05-23T19:35:41.781Z,93938.53
2019-05-23T19:38:12.194Z,93950.20
2019-05-23T19:40:41.930Z,93953.34
2019-05-23T19:43:10.633Z,93952.39
2019-05-23T19:45:39.769Z,93954.91
2019-05-23T19:48:08.669Z,93955.75
2019-05-23T19:50:38.714Z,93950.62
2019-05-23T19:53:07.450Z,93948.27
2019-05-23T19:55:40.007Z,93949.80
2019-05-23T19:58:08.080Z,93950.38
2019-05-23T20:00:36.825Z,93946.91
2019-05-23T20:03:05.918Z,93944.20
2019-05-23T20:05:36.313Z,93944.30
2019-05-23T20:08:06.150Z,93940.24
2019-05-23T20:10:35.342Z,93940.73
2019-05-23T20:13:04.039Z,93940.30
2019-05-23T20:15:33.180Z,93939.25
2019-05-23T20:18:02.165Z,93935.41
2019-05-23T20:20:32.604Z,93930.68
2019-05-23T20:23:01.525Z,93930.30
2019-05-23T20:25:30.323Z,93932.77
2019-05-23T20:27:59.065Z,93927.16
2019-05-23T20:30:42.781Z,93937.98
2019-05-23T20:33:11.477Z,93938.51
2019-05-23T20:35:40.196Z,93943.91
2019-05-23T20:38:09.271Z,93938.80
2019-05-23T20:40:39.089Z,93937.20
2019-05-23T20:43:07.856Z,93941.53
2019-05-23T20:45:37.288Z,93935.87
2019-05-23T20:48:08.520Z,93936.45
2019-05-23T20:50:37.224Z,93933.74
2019-05-23T20:53:06.823Z,93932.90
2019-05-23T20:55:35.921Z,93937.53
2019-05-23T20:58:05.511Z,93943.72
2019-05-23T21:00:36.088Z,93931.45
2019-05-23T21:03:05.086Z,93938.81
2019-05-23T21:05:33.778Z,93935.00
2019-05-23T21:08:02.524Z,93934.20
2019-05-23T21:10:39.625Z,93933.23
2019-05-23T21:13:08.365Z,93934.19
2019-05-23T21:15:37.066Z,93932.77
2019-05-23T21:18:06.568Z,93934.39
2019-05-23T21:20:36.279Z,93929.20
2019-05-23T21:23:05.142Z,93926.49
2019-05-23T21:25:35.847Z,93922.94
2019-05-23T21:28:04.705Z,93925.09
2019-05-23T21:30:33.406Z,93921.00
2019-05-23T21:33:02.101Z,93919.88
2019-05-23T21:35:31.667Z,93922.98
2019-05-23T21:38:00.363Z,93920.56
2019-05-23T21:40:37.829Z,93926.70
2019-05-23T21:43:06.535Z,93924.06
2019-05-23T21:45:35.227Z,93921.23
2019-05-23T21:48:04.673Z,93917.69
2019-05-23T21:50:33.573Z,93924.05
2019-05-23T21:53:02.660Z,93916.89
2019-05-23T21:55:42.727Z,93914.15
2019-05-23T21:58:14.857Z,93914.39
2019-05-23T22:01:08.757Z,93913.64
2019-05-23T22:03:55.008Z,93916.39
2019-05-23T22:06:41.062Z,93908.78
2019-05-23T22:09:11.321Z,93910.47
2019-05-23T22:11:40.118Z,93909.98
2019-05-23T22:14:08.892Z,93908.69
2019-05-23T22:16:37.926Z,93904.12
2019-05-23T22:19:09.193Z,93907.05
2019-05-23T22:21:38.279Z,93904.75
2019-05-23T22:24:08.532Z,93901.80
2019-05-23T22:26:37.381Z,93902.22
2019-05-23T22:29:06.634Z,93896.64
2019-05-23T22:31:36.017Z,93897.34
2019-05-23T22:34:24.786Z,93895.94
2019-05-23T22:36:53.784Z,93898.41
2019-05-23T22:39:22.666Z,93892.63
2019-05-23T22:41:51.330Z,93893.85
2019-05-23T22:44:20.424Z,93894.31
2019-05-23T22:46:49.222Z,93904.52
2019-05-23T22:49:18.133Z,93896.23
2019-05-23T22:51:46.860Z,93895.36
2019-05-23T22:54:15.566Z,93893.18
2019-05-23T22:56:44.296Z,93892.19
2019-05-23T22:59:13.152Z,93895.06
2019-05-23T23:01:41.879Z,93885.27
2019-05-23T23:04:11.080Z,93894.11
2019-05-23T23:06:39.779Z,93886.18
2019-05-23T23:09:08.481Z,93884.05
2019-05-23T23:11:37.217Z,93888.05
2019-05-23T23:14:06.710Z,93888.47
2019-05-23T23:16:35.413Z,93881.63
2019-05-23T23:19:04.446Z,93879.28
2019-05-23T23:21:33.168Z,93884.78
2019-05-23T23:24:01.796Z,93876.42
2019-05-23T23:26:30.531Z,93867.86
2019-05-23T23:28:59.526Z,93865.02
2019-05-23T23:31:28.325Z,93863.65
2019-05-23T23:33:57.046Z,93863.34
2019-05-23T23:36:25.753Z,93862.55
2019-05-23T23:38:54.454Z,93862.47
2019-05-23T23:41:23.187Z,93856.64
2019-05-23T23:43:59.148Z,93857.05
2019-05-23T23:46:39.893Z,93853.05
2019-05-23T23:49:26.132Z,93854.89
2019-05-23T23:52:12.302Z,93854.04
2019-05-23T23:54:58.740Z,93851.47
2019-05-23T23:57:46.209Z,93852.20
